Hancock, New Hampshire
Current Conditions -  °F | °C
As of 10:52 PM on Saturday 25 Oct 2014 (Local Time) from KAFN Reporting Station
Light Rain Light Rain  
Wind Chill: 50°   Ceiling: 6000
Heat Index: 50°   Visibility: 6mi
Dew Point: 44°   Wind: 9mph
Humidity: 80%   Direction: 200°SSW
Pressure: 29.53"   Gusts: NA
Location:  42.97°N, 71.98°W
Report Text: KAFN 260252Z AUTO 20008KT 6SM -RA FEW046 BKN060 OVC080 10/07 A2953 RMK AO2 RAB39 SLP006 P0001 60001 T01000067 56016
Loading
Personal Weather Stations






























Interactive Weather Map
Tropical Storm Tracking
New forecast layout! Learn more

10-Day Weather Forecast

Advertisements
Track Severe Weather on mobile